createdAt,value
2017-10-14T00:00:44.132Z,92.00
2017-10-14T00:03:12.086Z,92.10
2017-10-14T00:05:39.983Z,92.10
2017-10-14T00:08:07.940Z,92.10
2017-10-14T00:10:35.834Z,92.20
2017-10-14T00:13:03.724Z,92.20
2017-10-14T00:15:32.445Z,92.20
2017-10-14T00:18:00.335Z,92.20
2017-10-14T00:20:28.272Z,92.10
2017-10-14T00:22:56.226Z,92.00
2017-10-14T00:25:24.165Z,91.60
2017-10-14T00:27:52.056Z,91.60
2017-10-14T00:30:20.005Z,91.70
2017-10-14T00:32:47.953Z,92.00
2017-10-14T00:35:15.919Z,92.10
2017-10-14T00:37:43.811Z,92.00
2017-10-14T00:40:11.761Z,91.70
2017-10-14T00:42:39.679Z,91.70
2017-10-14T00:45:11.491Z,91.90
2017-10-14T00:47:39.405Z,92.30
2017-10-14T00:50:07.354Z,92.00
2017-10-14T00:52:36.022Z,92.30
2017-10-14T00:55:04.010Z,92.30
2017-10-14T00:57:32.774Z,92.00
2017-10-14T01:00:00.809Z,92.00
2017-10-14T01:02:28.712Z,91.90
2017-10-14T01:04:56.720Z,91.80
2017-10-14T01:07:25.400Z,91.90
2017-10-14T01:09:53.373Z,92.10
2017-10-14T01:12:22.045Z,92.00
2017-10-14T01:14:51.146Z,91.90
2017-10-14T01:17:19.073Z,91.90
2017-10-14T01:19:47.105Z,91.80
2017-10-14T01:22:15.075Z,91.80
2017-10-14T01:24:43.090Z,92.00
2017-10-14T01:27:11.131Z,92.30
2017-10-14T01:29:39.142Z,92.30
2017-10-14T01:32:07.173Z,92.10
2017-10-14T01:34:35.150Z,92.00
2017-10-14T01:37:03.169Z,91.90
2017-10-14T01:39:31.136Z,92.00
2017-10-14T01:41:59.164Z,92.10
2017-10-14T01:44:27.388Z,92.10
2017-10-14T01:46:55.365Z,92.00
2017-10-14T01:49:23.332Z,92.00
2017-10-14T01:51:51.360Z,92.00
2017-10-14T01:54:19.347Z,91.90
2017-10-14T01:56:47.347Z,91.80
2017-10-14T01:59:15.316Z,91.80
2017-10-14T02:01:43.325Z,91.70
2017-10-14T02:04:11.252Z,91.60
2017-10-14T02:06:39.242Z,91.60
2017-10-14T02:09:07.174Z,91.50
2017-10-14T02:11:35.145Z,91.40
2017-10-14T02:14:03.287Z,91.00
2017-10-14T02:16:31.270Z,91.10
2017-10-14T02:18:59.177Z,91.20
2017-10-14T02:21:27.095Z,91.30
2017-10-14T02:23:55.040Z,91.50
2017-10-14T02:26:22.934Z,91.50
2017-10-14T02:28:50.881Z,91.60
2017-10-14T02:31:18.786Z,91.50
2017-10-14T02:33:46.737Z,91.10
2017-10-14T02:36:14.649Z,91.50
2017-10-14T02:38:42.604Z,91.50
2017-10-14T02:41:10.507Z,91.50
2017-10-14T02:43:38.631Z,91.40
2017-10-14T02:46:06.540Z,91.80
2017-10-14T02:48:34.482Z,91.70
2017-10-14T02:51:02.392Z,91.60
2017-10-14T02:53:30.333Z,90.90
2017-10-14T02:55:58.236Z,91.10
2017-10-14T02:58:26.954Z,91.60
2017-10-14T03:00:54.829Z,91.60
2017-10-14T03:03:22.754Z,91.60
2017-10-14T03:05:50.632Z,91.50
2017-10-14T03:08:19.328Z,91.60
2017-10-14T03:10:47.985Z,92.10
2017-10-14T03:13:16.098Z,92.10
2017-10-14T03:15:43.989Z,91.70
2017-10-14T03:18:11.914Z,91.20
2017-10-14T03:20:39.990Z,91.30
2017-10-14T03:23:08.725Z,92.10
2017-10-14T03:25:36.631Z,92.10
2017-10-14T03:28:04.525Z,92.10
2017-10-14T03:30:33.227Z,91.70
2017-10-14T03:33:01.117Z,91.70
2017-10-14T03:35:29.068Z,91.70
2017-10-14T03:37:56.941Z,92.10
2017-10-14T03:40:24.878Z,92.10
2017-10-14T03:42:59.309Z,91.20
2017-10-14T03:45:28.004Z,91.50
2017-10-14T03:47:55.892Z,91.50
2017-10-14T03:50:23.832Z,91.70
2017-10-14T03:52:51.724Z,91.70
2017-10-14T03:55:19.670Z,91.70
2017-10-14T03:57:47.563Z,91.90
2017-10-14T04:00:15.499Z,91.50
2017-10-14T04:02:43.397Z,91.90
2017-10-14T04:05:11.321Z,91.70
2017-10-14T04:07:39.206Z,91.70
2017-10-14T04:10:07.905Z,91.10
2017-10-14T04:12:36.556Z,91.50
2017-10-14T04:15:04.509Z,91.50
2017-10-14T04:17:32.655Z,91.60
2017-10-14T04:20:00.585Z,91.30
2017-10-14T04:22:28.468Z,91.20
2017-10-14T04:24:56.390Z,91.20
2017-10-14T04:27:24.292Z,90.80
2017-10-14T04:29:52.223Z,91.40
2017-10-14T04:32:20.106Z,91.20
2017-10-14T04:34:47.999Z,91.10
2017-10-14T04:37:15.944Z,91.50
2017-10-14T04:39:43.845Z,91.90
2017-10-14T04:42:12.565Z,91.40
2017-10-14T04:44:40.442Z,91.40
2017-10-14T04:47:08.438Z,91.40
2017-10-14T04:49:36.374Z,90.90
2017-10-14T04:52:04.301Z,91.40
2017-10-14T04:54:32.210Z,91.30
2017-10-14T04:57:00.145Z,91.20
2017-10-14T04:59:28.023Z,91.60
2017-10-14T05:01:55.954Z,91.60
2017-10-14T05:04:23.926Z,91.10
2017-10-14T05:06:51.848Z,90.90
2017-10-14T05:09:19.733Z,91.20
2017-10-14T05:11:47.694Z,91.50
2017-10-14T05:14:20.232Z,91.40
2017-10-14T05:16:48.171Z,91.20
2017-10-14T05:19:16.063Z,91.40
2017-10-14T05:21:43.985Z,91.50
2017-10-14T05:24:24.655Z,91.20
2017-10-14T05:26:52.574Z,91.30
2017-10-14T05:29:20.456Z,91.60
2017-10-14T05:31:52.211Z,91.60
2017-10-14T05:34:26.506Z,91.40
2017-10-14T05:36:59.957Z,91.40
2017-10-14T05:39:30.109Z,91.60
2017-10-14T05:42:03.863Z,91.50
2017-10-14T05:44:37.378Z,91.30
2017-10-14T05:47:11.989Z,91.40
2017-10-14T05:49:46.383Z,91.80
2017-10-14T05:52:21.296Z,91.90
2017-10-14T05:54:54.016Z,92.20
2017-10-14T05:57:25.809Z,91.70
2017-10-14T05:59:58.476Z,91.00
2017-10-14T06:02:34.098Z,91.20
2017-10-14T06:05:08.840Z,91.70
2017-10-14T06:07:40.370Z,91.70
2017-10-14T06:10:08.347Z,92.00
2017-10-14T06:12:36.267Z,92.00
2017-10-14T06:15:04.151Z,91.40
2017-10-14T06:17:32.075Z,91.20
2017-10-14T06:19:59.954Z,91.60
2017-10-14T06:22:27.874Z,91.20
2017-10-14T06:24:55.765Z,91.10
2017-10-14T06:27:23.642Z,90.60
2017-10-14T06:29:52.326Z,90.60
2017-10-14T06:32:21.024Z,90.80
2017-10-14T06:34:51.886Z,90.80
2017-10-14T06:37:19.773Z,90.80
2017-10-14T06:39:47.708Z,89.90
2017-10-14T06:42:15.593Z,89.40
2017-10-14T06:44:43.545Z,89.80
2017-10-14T06:47:11.448Z,90.10
2017-10-14T06:49:39.396Z,89.90
2017-10-14T06:52:07.273Z,89.50
2017-10-14T06:54:35.200Z,88.70
2017-10-14T06:57:03.859Z,85.20
2017-10-14T06:59:31.809Z,84.90
2017-10-14T07:01:59.711Z,86.80
2017-10-14T07:04:27.844Z,85.00
2017-10-14T07:06:55.756Z,83.50
2017-10-14T07:09:23.701Z,82.20
2017-10-14T07:11:51.600Z,80.80
2017-10-14T07:14:19.540Z,79.30
2017-10-14T07:16:47.508Z,78.00
2017-10-14T07:19:15.444Z,76.60
2017-10-14T07:21:43.326Z,74.90
2017-10-14T07:24:11.277Z,74.50
2017-10-14T07:26:39.188Z,72.80
2017-10-14T07:29:07.138Z,71.10
2017-10-14T07:31:35.010Z,68.60
2017-10-14T07:34:04.955Z,66.50
2017-10-14T07:36:32.906Z,64.60
2017-10-14T07:39:00.789Z,61.80
2017-10-14T07:41:28.711Z,60.00
2017-10-14T07:43:56.608Z,57.40
2017-10-14T07:46:24.550Z,55.30
2017-10-14T07:48:52.442Z,53.10
2017-10-14T07:51:20.398Z,50.80
2017-10-14T07:53:48.516Z,49.60
2017-10-14T07:56:16.415Z,48.40
2017-10-14T07:58:45.312Z,46.00
2017-10-14T08:01:13.380Z,45.80
2017-10-14T08:03:50.020Z,44.20
2017-10-14T08:06:24.246Z,44.20
2017-10-14T08:08:55.934Z,44.20
2017-10-14T08:11:24.105Z,43.50
2017-10-14T08:13:52.037Z,42.60
2017-10-14T08:16:20.043Z,41.60
2017-10-14T08:18:48.733Z,40.70
2017-10-14T08:21:16.697Z,40.60
2017-10-14T08:23:44.602Z,40.50
2017-10-14T08:26:12.601Z,40.10
2017-10-14T08:28:40.544Z,39.80
2017-10-14T08:31:08.521Z,39.40
2017-10-14T08:33:36.469Z,39.00
2017-10-14T08:36:04.423Z,39.30
2017-10-14T08:38:32.302Z,39.20
2017-10-14T08:41:00.276Z,39.50
2017-10-14T08:43:31.299Z,39.90
2017-10-14T08:45:59.985Z,38.80
2017-10-14T08:48:28.706Z,39.70
2017-10-14T08:50:56.613Z,39.20
2017-10-14T08:53:24.581Z,39.60
2017-10-14T08:55:52.499Z,39.20
2017-10-14T08:58:20.458Z,38.50
2017-10-14T09:00:48.438Z,39.40
2017-10-14T09:03:16.867Z,40.10
2017-10-14T09:05:44.893Z,41.10
2017-10-14T09:08:12.853Z,40.80
2017-10-14T09:10:40.824Z,41.60
2017-10-14T09:13:09.808Z,40.70
2017-10-14T09:15:37.749Z,40.80
2017-10-14T09:18:05.800Z,40.00
2017-10-14T09:20:33.797Z,38.20
2017-10-14T09:23:02.389Z,38.90
2017-10-14T09:25:30.536Z,38.40
2017-10-14T09:27:59.397Z,40.70
2017-10-14T09:30:27.381Z,40.70
2017-10-14T09:32:55.453Z,40.20
2017-10-14T09:35:23.493Z,39.60
2017-10-14T09:37:51.522Z,39.00
2017-10-14T09:40:19.547Z,38.30
2017-10-14T09:42:48.709Z,38.80
2017-10-14T09:45:17.453Z,39.10
2017-10-14T09:47:45.425Z,39.00
2017-10-14T09:50:14.522Z,38.80
2017-10-14T09:52:43.380Z,38.10
2017-10-14T09:55:11.314Z,37.60
2017-10-14T09:57:39.225Z,36.60
2017-10-14T10:00:07.184Z,37.60
2017-10-14T10:02:35.166Z,38.60
2017-10-14T10:05:03.190Z,38.40
2017-10-14T10:07:32.086Z,38.10
2017-10-14T10:10:00.054Z,37.00
2017-10-14T10:12:27.969Z,36.90
2017-10-14T10:14:55.953Z,36.90
2017-10-14T10:17:23.885Z,36.10
2017-10-14T10:19:52.616Z,38.30
2017-10-14T10:22:20.521Z,38.30
2017-10-14T10:24:48.493Z,37.60
2017-10-14T10:27:16.435Z,37.20
2017-10-14T10:29:44.373Z,39.10
2017-10-14T10:32:12.296Z,37.20
2017-10-14T10:34:40.298Z,36.90
2017-10-14T10:37:08.229Z,36.20
2017-10-14T10:39:36.168Z,34.60
2017-10-14T10:42:04.906Z,37.10
2017-10-14T10:44:33.199Z,37.60
2017-10-14T10:47:01.941Z,37.60
2017-10-14T10:49:29.948Z,37.50
2017-10-14T10:51:57.958Z,37.70
2017-10-14T10:54:26.118Z,38.40
2017-10-14T10:56:54.054Z,39.30
2017-10-14T10:59:22.019Z,37.70
2017-10-14T11:01:49.974Z,36.30
2017-10-14T11:04:18.030Z,36.40
2017-10-14T11:06:46.043Z,35.90
2017-10-14T11:09:14.174Z,36.00
2017-10-14T11:11:42.080Z,35.60
2017-10-14T11:14:10.021Z,36.80
2017-10-14T11:16:38.063Z,38.40
2017-10-14T11:19:06.036Z,38.60
2017-10-14T11:21:34.018Z,39.00
2017-10-14T11:24:03.144Z,36.50
2017-10-14T11:26:31.200Z,36.40
2017-10-14T11:29:00.032Z,37.20
2017-10-14T11:31:28.059Z,37.20
2017-10-14T11:33:56.037Z,37.50
2017-10-14T11:36:24.188Z,38.20
2017-10-14T11:38:52.182Z,38.80
2017-10-14T11:41:20.202Z,37.90
2017-10-14T11:43:54.869Z,37.90
2017-10-14T11:46:30.058Z,37.30
2017-10-14T11:48:58.059Z,36.70
2017-10-14T11:51:26.121Z,40.60
2017-10-14T11:53:54.847Z,39.50
2017-10-14T11:56:22.907Z,39.50
2017-10-14T11:58:50.868Z,36.90
2017-10-14T12:01:19.163Z,38.10
2017-10-14T12:03:49.439Z,36.60
2017-10-14T12:06:17.452Z,37.60
2017-10-14T12:08:45.484Z,38.20
2017-10-14T12:11:15.862Z,39.10
2017-10-14T12:13:43.986Z,37.90
2017-10-14T12:16:20.385Z,37.30
2017-10-14T12:18:49.186Z,37.60
2017-10-14T12:21:17.174Z,37.50
2017-10-14T12:23:50.937Z,38.10
2017-10-14T12:26:18.985Z,38.60
2017-10-14T12:28:48.950Z,37.10
2017-10-14T12:31:16.938Z,40.00
2017-10-14T12:33:45.975Z,39.60
2017-10-14T12:36:15.827Z,39.60
2017-10-14T12:38:43.864Z,38.60
2017-10-14T12:41:14.068Z,40.00
2017-10-14T12:43:48.049Z,40.00
2017-10-14T12:46:17.007Z,40.30
2017-10-14T12:48:45.061Z,39.80
2017-10-14T12:51:13.235Z,39.30
2017-10-14T12:53:41.981Z,38.50
2017-10-14T12:56:09.889Z,38.40
2017-10-14T12:58:37.845Z,38.80
2017-10-14T13:01:05.839Z,39.90
2017-10-14T13:03:35.800Z,39.60
2017-10-14T13:06:03.711Z,39.60
2017-10-14T13:08:31.658Z,39.90
2017-10-14T13:10:59.552Z,39.10
2017-10-14T13:13:28.271Z,40.40
2017-10-14T13:15:56.148Z,40.30
2017-10-14T13:18:24.081Z,41.60
2017-10-14T13:20:51.970Z,40.20
2017-10-14T13:23:19.900Z,42.80
2017-10-14T13:25:47.801Z,44.00
2017-10-14T13:28:15.739Z,42.60
2017-10-14T13:30:43.662Z,43.60
2017-10-14T13:33:11.740Z,45.00
2017-10-14T13:35:39.635Z,42.70
2017-10-14T13:38:07.597Z,43.20
2017-10-14T13:40:35.545Z,43.40
2017-10-14T13:43:03.568Z,44.60
2017-10-14T13:45:31.450Z,45.30
2017-10-14T13:48:00.118Z,45.20
2017-10-14T13:50:28.047Z,45.10
2017-10-14T13:52:56.003Z,46.30
2017-10-14T13:55:23.926Z,46.20
2017-10-14T13:57:51.804Z,47.30
2017-10-14T14:00:20.506Z,47.20
2017-10-14T14:02:48.389Z,47.00
2017-10-14T14:05:16.308Z,47.40
2017-10-14T14:07:44.177Z,48.80
2017-10-14T14:10:12.091Z,48.00
2017-10-14T14:12:39.985Z,47.60
2017-10-14T14:15:07.924Z,47.60
2017-10-14T14:17:35.790Z,48.00
2017-10-14T14:20:03.722Z,48.70
2017-10-14T14:22:31.612Z,49.30
2017-10-14T14:25:01.547Z,49.50
2017-10-14T14:27:29.422Z,49.40
2017-10-14T14:29:57.349Z,49.80
2017-10-14T14:32:25.222Z,49.70
2017-10-14T14:34:53.210Z,50.10
2017-10-14T14:37:21.853Z,50.40
2017-10-14T14:39:49.779Z,50.40
2017-10-14T14:42:17.663Z,50.60
2017-10-14T14:44:45.563Z,49.60
2017-10-14T14:47:13.509Z,50.40
2017-10-14T14:49:41.400Z,51.20
2017-10-14T14:52:09.344Z,52.30
2017-10-14T14:54:38.105Z,51.60
2017-10-14T14:57:06.026Z,51.50
2017-10-14T14:59:33.892Z,51.60
2017-10-14T15:02:01.817Z,53.20
2017-10-14T15:04:29.742Z,52.20
2017-10-14T15:06:57.723Z,53.40
2017-10-14T15:09:25.592Z,53.20
2017-10-14T15:11:54.303Z,54.40
2017-10-14T15:14:23.549Z,54.80
2017-10-14T15:16:51.466Z,54.60
2017-10-14T15:19:19.352Z,55.80
2017-10-14T15:21:47.287Z,56.70
2017-10-14T15:24:15.253Z,55.40
2017-10-14T15:26:43.932Z,56.10
2017-10-14T15:29:11.819Z,56.40
2017-10-14T15:31:39.825Z,56.70
2017-10-14T15:34:07.762Z,57.80
2017-10-14T15:36:36.670Z,58.80
2017-10-14T15:39:05.333Z,58.00
2017-10-14T15:41:33.262Z,58.00
2017-10-14T15:44:01.124Z,58.90
2017-10-14T15:46:29.079Z,59.10
2017-10-14T15:48:56.949Z,60.40
2017-10-14T15:51:27.280Z,61.10
2017-10-14T15:53:57.453Z,62.00
2017-10-14T15:56:25.371Z,60.50
2017-10-14T15:58:53.310Z,63.10
2017-10-14T16:01:21.972Z,66.60
2017-10-14T16:03:49.893Z,66.60
2017-10-14T16:06:17.826Z,67.80
2017-10-14T16:08:45.784Z,68.80
2017-10-14T16:11:13.699Z,69.80
2017-10-14T16:13:41.637Z,70.80
2017-10-14T16:16:10.282Z,73.80
2017-10-14T16:18:38.223Z,73.70
2017-10-14T16:21:06.128Z,74.00
2017-10-14T16:23:34.310Z,74.80
2017-10-14T16:26:02.201Z,75.80
2017-10-14T16:28:30.179Z,74.40
2017-10-14T16:30:58.060Z,76.90
2017-10-14T16:33:26.246Z,78.00
2017-10-14T16:35:54.144Z,78.80
2017-10-14T16:38:22.076Z,78.10
2017-10-14T16:40:49.971Z,78.10
2017-10-14T16:43:17.906Z,78.60
2017-10-14T16:45:45.792Z,80.20
2017-10-14T16:48:13.707Z,81.60
2017-10-14T16:50:41.598Z,81.60
2017-10-14T16:53:13.893Z,80.70
2017-10-14T16:55:41.792Z,80.60
2017-10-14T16:58:09.763Z,81.30
2017-10-14T17:00:37.830Z,81.80
2017-10-14T17:03:05.768Z,82.90
2017-10-14T17:05:33.688Z,81.40
2017-10-14T17:08:01.558Z,80.40
2017-10-14T17:10:29.496Z,80.30
2017-10-14T17:12:57.426Z,81.10
2017-10-14T17:15:25.363Z,81.50
2017-10-14T17:17:53.244Z,80.90
2017-10-14T17:20:21.179Z,82.40
2017-10-14T17:22:49.076Z,82.50
2017-10-14T17:25:19.376Z,83.60
2017-10-14T17:27:47.509Z,84.00
2017-10-14T17:30:16.211Z,84.60
2017-10-14T17:32:44.104Z,84.50
2017-10-14T17:35:12.041Z,83.90
2017-10-14T17:37:39.934Z,83.20
2017-10-14T17:40:07.907Z,82.90
2017-10-14T17:42:35.812Z,83.50
2017-10-14T17:45:10.158Z,83.60
2017-10-14T17:47:38.860Z,83.30
2017-10-14T17:50:06.797Z,83.20
2017-10-14T17:52:34.689Z,81.50
2017-10-14T17:55:03.371Z,83.70
2017-10-14T17:57:32.034Z,83.50
2017-10-14T17:59:59.956Z,83.40
2017-10-14T18:02:27.887Z,85.00
2017-10-14T18:04:56.589Z,83.40
2017-10-14T18:07:30.707Z,83.30
2017-10-14T18:10:03.391Z,81.50
2017-10-14T18:12:31.523Z,82.60
2017-10-14T18:14:59.494Z,82.00
2017-10-14T18:17:27.376Z,81.90
2017-10-14T18:19:55.268Z,83.60
2017-10-14T18:22:23.221Z,83.10
2017-10-14T18:24:51.171Z,82.10
2017-10-14T18:27:19.155Z,83.40
2017-10-14T18:29:47.041Z,84.60
2017-10-14T18:32:21.781Z,84.20
2017-10-14T18:34:50.279Z,84.00
2017-10-14T18:37:18.246Z,83.20
2017-10-14T18:39:46.146Z,84.70
2017-10-14T18:42:14.116Z,85.30
2017-10-14T18:44:41.997Z,83.50
2017-10-14T18:47:10.016Z,83.80
2017-10-14T18:49:40.677Z,86.10
2017-10-14T18:52:14.829Z,86.60
2017-10-14T18:54:44.389Z,85.20
2017-10-14T18:57:14.472Z,84.80
2017-10-14T18:59:43.285Z,85.50
2017-10-14T19:02:13.906Z,83.20
2017-10-14T19:04:47.717Z,83.20
2017-10-14T19:07:15.926Z,85.90
2017-10-14T19:09:43.843Z,84.80
2017-10-14T19:12:11.829Z,85.00
2017-10-14T19:14:39.776Z,84.00
2017-10-14T19:17:12.053Z,86.40
2017-10-14T19:19:44.278Z,86.00
2017-10-14T19:22:16.664Z,82.40
2017-10-14T19:24:48.837Z,83.40
2017-10-14T19:27:21.116Z,85.30
2017-10-14T19:29:53.425Z,86.50
2017-10-14T19:32:26.143Z,84.60
2017-10-14T19:34:58.615Z,85.80
2017-10-14T19:37:30.850Z,86.00
2017-10-14T19:40:02.652Z,85.10
2017-10-14T19:42:36.746Z,86.60
2017-10-14T19:45:09.665Z,84.90
2017-10-14T19:47:40.515Z,84.70
2017-10-14T19:50:12.574Z,83.90
2017-10-14T19:52:45.075Z,84.60
2017-10-14T19:55:18.197Z,84.60
2017-10-14T19:57:50.065Z,84.60
2017-10-14T20:00:22.899Z,83.90
2017-10-14T20:02:52.824Z,86.40
2017-10-14T20:05:24.828Z,84.40
2017-10-14T20:07:57.826Z,86.20
2017-10-14T20:10:31.788Z,83.00
2017-10-14T20:13:07.792Z,85.50
2017-10-14T20:15:37.901Z,86.40
2017-10-14T20:18:11.469Z,86.50
2017-10-14T20:20:46.443Z,82.70
2017-10-14T20:23:21.337Z,82.80
2017-10-14T20:25:50.859Z,85.20
2017-10-14T20:28:27.917Z,87.00
2017-10-14T20:31:02.475Z,86.90
2017-10-14T20:33:34.352Z,86.00
2017-10-14T20:36:05.948Z,82.30
2017-10-14T20:38:40.303Z,83.70
2017-10-14T20:41:08.833Z,86.10
2017-10-14T20:43:38.572Z,86.90
2017-10-14T20:46:07.577Z,86.50
2017-10-14T20:48:38.988Z,85.80
2017-10-14T20:51:08.259Z,86.90
2017-10-14T20:53:38.886Z,86.60
2017-10-14T20:56:12.756Z,86.60
2017-10-14T20:58:49.888Z,86.20
2017-10-14T21:01:18.819Z,87.80
2017-10-14T21:03:49.162Z,86.70
2017-10-14T21:06:23.047Z,86.70
2017-10-14T21:08:51.641Z,86.70
2017-10-14T21:11:20.734Z,83.30
2017-10-14T21:13:53.745Z,87.60
2017-10-14T21:16:23.392Z,84.20
2017-10-14T21:18:57.256Z,87.20
2017-10-14T21:21:29.304Z,85.80
2017-10-14T21:24:04.387Z,85.70
2017-10-14T21:26:37.654Z,85.30
2017-10-14T21:29:11.904Z,89.10
2017-10-14T21:31:45.495Z,86.60
2017-10-14T21:34:14.277Z,86.60
2017-10-14T21:36:47.380Z,86.10
2017-10-14T21:39:23.465Z,83.50
2017-10-14T21:41:55.892Z,87.70
2017-10-14T21:44:31.340Z,85.40
2017-10-14T21:47:06.107Z,85.40
2017-10-14T21:49:37.453Z,88.00
2017-10-14T21:52:14.166Z,86.80
2017-10-14T21:54:49.601Z,87.00
2017-10-14T21:57:18.394Z,83.00
2017-10-14T21:59:47.102Z,85.60
2017-10-14T22:02:16.166Z,87.60
2017-10-14T22:04:49.806Z,87.40
2017-10-14T22:07:24.164Z,88.30
2017-10-14T22:09:58.553Z,87.50
2017-10-14T22:12:27.894Z,87.50
2017-10-14T22:14:56.491Z,83.60
2017-10-14T22:17:25.795Z,85.90
2017-10-14T22:19:56.397Z,88.90
2017-10-14T22:22:31.620Z,88.70
2017-10-14T22:25:00.515Z,86.10
2017-10-14T22:27:34.699Z,86.90
2017-10-14T22:30:08.290Z,85.50
2017-10-14T22:32:38.505Z,85.30
2017-10-14T22:35:11.090Z,84.10
2017-10-14T22:37:40.878Z,84.40
2017-10-14T22:40:16.195Z,84.40
2017-10-14T22:42:46.325Z,86.10
2017-10-14T22:45:16.225Z,88.80
2017-10-14T22:47:46.564Z,84.80
2017-10-14T22:50:18.849Z,85.50
2017-10-14T22:52:47.348Z,87.90
2017-10-14T22:55:21.868Z,85.60
2017-10-14T22:57:50.373Z,83.90
2017-10-14T23:00:26.016Z,85.10
2017-10-14T23:02:55.470Z,87.60
2017-10-14T23:05:26.902Z,85.80
2017-10-14T23:08:01.793Z,84.50
2017-10-14T23:10:30.873Z,85.70
2017-10-14T23:13:00.479Z,84.80
2017-10-14T23:15:28.875Z,86.60
2017-10-14T23:17:58.499Z,90.00
2017-10-14T23:20:29.602Z,85.60
2017-10-14T23:23:01.091Z,88.90
2017-10-14T23:25:29.524Z,87.30
2017-10-14T23:27:59.942Z,87.20
2017-10-14T23:30:30.323Z,87.30
2017-10-14T23:32:58.863Z,88.20
2017-10-14T23:35:33.366Z,87.10
2017-10-14T23:38:08.752Z,90.00
2017-10-14T23:40:40.126Z,90.30
2017-10-14T23:43:17.679Z,90.50
2017-10-14T23:45:46.061Z,87.70
2017-10-14T23:48:14.350Z,89.60
2017-10-14T23:50:44.560Z,86.50
2017-10-14T23:53:14.837Z,89.80
2017-10-14T23:55:46.569Z,89.50
2017-10-14T23:58:18.860Z,86.30
